BGBW

Narsarsuaq Airport

Narsarsuaq, Greenland
METAR BGBW 161550Z 04010KT 9999 FEW072 BKN120 05/M11 Q0988
Observed Flight Rules
Nov-16 @ 15:50 UTC (31 minutes ago) Visual Flight Rules
Wind Visibility Clouds
40° at 10 knots 10,000+ meters
  • Few at 7,200' AGL
  • Broken at 12,000' AGL
Temperatures Readings
Current 5°C / 41°F
Dewpoint -11°C / 12°F
Humidity 31%
Altimeter 29.17" Hg
Pressure 988 hPa
Elevation 26
METAR BGBW 161550Z 04010KT 9999 FEW072 BKN120 05/M11 Q0988
Observed Flight Rules
Nov-16 @ 15:50 UTC
(31 minutes ago)
VFR
Wind Visibility
40° at 10 knots 10,000+ meters
Clouds
  • Few at 7,200' AGL
  • Broken at 12,000' AGL
Temperature Dewpoint
5°C / 41°F -11°C / 12°F
Humidity Altimeter Pressure
31% 29.17" Hg 988 hPa